createdAt,value
2023-03-28T00:00:47.936Z,16.30
2023-03-28T00:03:20.970Z,15.53
2023-03-28T00:05:50.339Z,15.70
2023-03-28T00:08:19.207Z,16.03
2023-03-28T00:10:47.696Z,15.70
2023-03-28T00:13:19.977Z,16.63
2023-03-28T00:15:48.556Z,16.60
2023-03-28T00:18:16.648Z,15.73
2023-03-28T00:20:45.077Z,15.50
2023-03-28T00:23:13.168Z,15.93
2023-03-28T00:25:41.976Z,15.27
2023-03-28T00:28:10.826Z,15.40
2023-03-28T00:30:40.185Z,15.60
2023-03-28T00:33:08.920Z,15.63
2023-03-28T00:35:37.061Z,14.67
2023-03-28T00:38:05.066Z,15.30
2023-03-28T00:40:38.876Z,16.13
2023-03-28T00:43:07.046Z,15.40
2023-03-28T00:45:35.121Z,15.77
2023-03-28T00:48:14.199Z,15.37
2023-03-28T00:50:48.792Z,15.93
2023-03-28T00:53:21.045Z,16.67
2023-03-28T00:55:52.065Z,16.60
2023-03-28T00:58:24.111Z,17.20
2023-03-28T01:00:52.214Z,16.50
2023-03-28T01:03:27.683Z,16.67
2023-03-28T01:05:57.167Z,19.20
2023-03-28T01:08:27.464Z,17.73
2023-03-28T01:10:56.423Z,17.93
2023-03-28T01:13:28.045Z,16.80
2023-03-28T01:15:56.651Z,17.30
2023-03-28T01:18:26.429Z,17.67
2023-03-28T01:21:28.740Z,17.10
2023-03-28T01:24:51.724Z,16.30
2023-03-28T01:27:24.295Z,16.50
2023-03-28T01:30:36.943Z,16.50
2023-03-28T01:33:43.151Z,16.50
2023-03-28T01:36:52.806Z,15.27
2023-03-28T01:39:30.196Z,16.00
2023-03-28T01:42:06.349Z,16.65
2023-03-28T01:44:39.456Z,16.73
2023-03-28T01:47:14.024Z,16.88
2023-03-28T01:49:48.552Z,15.90
2023-03-28T01:52:23.618Z,16.50
2023-03-28T01:54:59.410Z,15.30
2023-03-28T01:57:33.710Z,16.40
2023-03-28T02:00:11.985Z,16.80
2023-03-28T02:02:44.850Z,17.00
2023-03-28T02:05:16.409Z,17.33
2023-03-28T02:07:48.261Z,17.10
2023-03-28T02:10:18.516Z,20.50
2023-03-28T02:12:49.707Z,38.67
2023-03-28T02:15:21.772Z,39.17
2023-03-28T02:17:55.117Z,38.63
2023-03-28T02:20:28.776Z,37.80
2023-03-28T02:23:02.490Z,38.77
2023-03-28T02:25:31.833Z,36.17
2023-03-28T02:28:03.586Z,37.30
2023-03-28T02:30:31.640Z,37.40
2023-03-28T02:33:01.337Z,39.17
2023-03-28T02:35:38.769Z,38.20
2023-03-28T02:38:16.116Z,38.03
2023-03-28T02:40:54.071Z,38.63
2023-03-28T02:43:52.173Z,38.73
2023-03-28T02:46:24.598Z,38.27
2023-03-28T02:49:22.347Z,38.07
2023-03-28T02:51:59.777Z,37.27
2023-03-28T02:54:37.004Z,38.37
2023-03-28T02:57:10.469Z,38.07
2023-03-28T02:59:43.717Z,16.40
2023-03-28T03:02:16.585Z,16.60
2023-03-28T03:04:45.408Z,16.97
2023-03-28T03:07:13.854Z,16.90
2023-03-28T03:09:45.885Z,17.00
2023-03-28T03:12:14.027Z,16.73
2023-03-28T03:14:42.110Z,16.23
2023-03-28T03:17:10.865Z,16.50
2023-03-28T03:19:38.873Z,16.57
2023-03-28T03:22:07.435Z,16.53
2023-03-28T03:24:36.366Z,16.00
2023-03-28T03:27:05.776Z,17.10
2023-03-28T03:29:38.422Z,16.20
2023-03-28T03:32:07.426Z,16.30
2023-03-28T03:34:36.798Z,15.70
2023-03-28T03:37:05.529Z,16.23
2023-03-28T03:39:33.522Z,16.03
2023-03-28T03:42:01.532Z,15.93
2023-03-28T03:44:31.103Z,16.00
2023-03-28T03:46:59.077Z,16.03
2023-03-28T03:49:27.039Z,15.87
2023-03-28T03:51:55.017Z,16.00
2023-03-28T03:54:23.032Z,36.43
2023-03-28T03:56:51.043Z,37.63
2023-03-28T03:59:19.130Z,38.40
2023-03-28T04:01:48.572Z,37.93
2023-03-28T04:04:16.668Z,36.20
2023-03-28T04:06:44.724Z,37.43
2023-03-28T04:09:12.665Z,37.27
2023-03-28T04:11:40.639Z,37.87
2023-03-28T04:14:08.730Z,38.80
2023-03-28T04:16:40.307Z,38.73
2023-03-28T04:19:13.881Z,38.33
2023-03-28T04:21:43.771Z,38.13
2023-03-28T04:24:15.796Z,37.13
2023-03-28T04:26:45.979Z,38.53
2023-03-28T04:29:14.031Z,38.00
2023-03-28T04:31:49.752Z,38.60
2023-03-28T04:34:20.074Z,39.03
2023-03-28T04:36:48.117Z,19.00
2023-03-28T04:39:16.189Z,18.80
2023-03-28T04:41:46.084Z,18.07
2023-03-28T04:44:14.130Z,17.40
2023-03-28T04:46:42.173Z,17.47
2023-03-28T04:49:12.809Z,17.90
2023-03-28T04:51:42.156Z,16.93
2023-03-28T04:54:10.162Z,17.27
2023-03-28T04:56:38.331Z,17.83
2023-03-28T04:59:06.590Z,18.23
2023-03-28T05:01:34.747Z,17.80
2023-03-28T05:04:02.956Z,17.60
2023-03-28T05:06:30.970Z,17.80
2023-03-28T05:09:00.962Z,18.27
2023-03-28T05:11:29.421Z,17.47
2023-03-28T05:13:57.452Z,19.37
2023-03-28T05:16:25.520Z,16.83
2023-03-28T05:18:53.531Z,17.30
2023-03-28T05:21:21.539Z,17.40
2023-03-28T05:23:51.251Z,17.17
2023-03-28T05:26:21.769Z,18.40
2023-03-28T05:28:49.894Z,25.65
2023-03-28T05:31:18.289Z,23.87
2023-03-28T05:33:46.438Z,22.33
2023-03-28T05:36:14.547Z,24.70
2023-03-28T05:38:42.545Z,42.53
2023-03-28T05:41:10.539Z,42.43
2023-03-28T05:43:39.992Z,40.20
2023-03-28T05:46:08.500Z,41.70
2023-03-28T05:48:36.891Z,40.23
2023-03-28T05:51:05.100Z,43.92
2023-03-28T05:53:33.240Z,40.33
2023-03-28T05:56:01.263Z,39.83
2023-03-28T05:58:29.584Z,40.93
2023-03-28T06:01:00.471Z,41.30
2023-03-28T06:03:31.651Z,40.13
2023-03-28T06:06:00.009Z,42.63
2023-03-28T06:08:28.174Z,43.67
2023-03-28T06:11:01.555Z,43.00
2023-03-28T06:13:29.737Z,40.80
2023-03-28T06:15:59.052Z,41.27
2023-03-28T06:18:27.144Z,41.27
2023-03-28T06:20:55.164Z,43.50
2023-03-28T06:23:23.176Z,46.43
2023-03-28T06:25:51.526Z,39.30
2023-03-28T06:28:19.490Z,39.60
2023-03-28T06:30:49.640Z,39.00
2023-03-28T06:33:18.993Z,41.20
2023-03-28T06:35:47.043Z,38.10
2023-03-28T06:38:15.151Z,47.90
2023-03-28T06:40:43.109Z,40.00
2023-03-28T06:43:11.150Z,40.50
2023-03-28T06:45:39.345Z,38.73
2023-03-28T06:48:07.654Z,40.40
2023-03-28T06:50:37.106Z,39.80
2023-03-28T06:53:05.065Z,40.27
2023-03-28T06:55:33.014Z,40.47
2023-03-28T06:58:01.407Z,39.47
2023-03-28T07:00:29.373Z,40.97
2023-03-28T07:02:57.372Z,41.00
2023-03-28T07:05:25.574Z,40.67
2023-03-28T07:07:55.151Z,44.10
2023-03-28T07:10:23.617Z,23.20
2023-03-28T07:12:51.662Z,24.07
2023-03-28T07:15:19.797Z,22.73
2023-03-28T07:17:48.330Z,22.00
2023-03-28T07:20:16.414Z,24.53
2023-03-28T07:22:44.402Z,23.90
2023-03-28T07:25:13.969Z,26.13
2023-03-28T07:27:41.945Z,20.20
2023-03-28T07:30:10.748Z,18.50
2023-03-28T07:32:50.410Z,23.47
2023-03-28T07:35:22.476Z,20.60
2023-03-28T07:37:50.449Z,20.07
2023-03-28T07:40:19.952Z,21.43
2023-03-28T07:42:50.047Z,25.63
2023-03-28T07:45:18.210Z,24.40
2023-03-28T07:47:46.412Z,21.43
2023-03-28T07:50:14.596Z,20.07
2023-03-28T07:52:45.673Z,22.00
2023-03-28T07:55:13.978Z,22.73
2023-03-28T07:57:45.440Z,21.30
2023-03-28T08:00:15.665Z,21.57
2023-03-28T08:02:44.984Z,24.40
2023-03-28T08:05:13.393Z,23.67
2023-03-28T08:07:45.936Z,28.47
2023-03-28T08:10:14.964Z,31.83
2023-03-28T08:12:44.370Z,36.00
2023-03-28T08:15:12.921Z,38.30
2023-03-28T08:17:41.172Z,32.97
2023-03-28T08:20:11.432Z,36.80
2023-03-28T08:22:39.514Z,36.67
2023-03-28T08:25:09.561Z,33.10
2023-03-28T08:27:37.577Z,40.10
2023-03-28T08:30:08.498Z,37.90
2023-03-28T08:32:36.549Z,32.73
2023-03-28T08:35:06.947Z,24.80
2023-03-28T08:37:35.151Z,22.93
2023-03-28T08:40:07.092Z,26.87
2023-03-28T08:42:55.837Z,20.40
2023-03-28T08:45:37.964Z,21.47
2023-03-28T08:48:16.372Z,20.80
2023-03-28T08:50:47.741Z,19.83
2023-03-28T08:53:20.935Z,19.80
2023-03-28T08:55:51.113Z,20.43
2023-03-28T08:58:23.586Z,19.40
2023-03-28T09:00:53.857Z,35.43
2023-03-28T09:03:23.878Z,36.33
2023-03-28T09:05:54.715Z,37.87
2023-03-28T09:08:52.093Z,39.20
2023-03-28T09:11:36.507Z,36.17
2023-03-28T09:14:23.180Z,38.07
2023-03-28T09:17:04.523Z,36.83
2023-03-28T09:20:00.500Z,42.73
2023-03-28T09:22:38.686Z,40.67
2023-03-28T09:25:20.088Z,41.90
2023-03-28T09:27:56.274Z,38.87
2023-03-28T09:30:29.903Z,41.50
2023-03-28T09:33:06.650Z,41.03
2023-03-28T09:35:36.109Z,41.33
2023-03-28T09:38:06.472Z,39.70
2023-03-28T09:40:36.020Z,50.80
2023-03-28T09:43:12.840Z,59.87
2023-03-28T09:45:51.167Z,43.77
2023-03-28T09:48:26.490Z,42.60
2023-03-28T09:50:54.687Z,52.40
2023-03-28T09:53:26.199Z,59.83
2023-03-28T09:56:04.512Z,58.77
2023-03-28T09:58:50.728Z,20.10
2023-03-28T10:01:37.432Z,17.40
2023-03-28T10:04:12.112Z,16.93
2023-03-28T10:06:41.712Z,17.27
2023-03-28T10:09:22.009Z,17.03
2023-03-28T10:11:54.375Z,16.83
2023-03-28T10:14:34.318Z,17.53
2023-03-28T10:17:04.620Z,16.50
2023-03-28T10:19:36.365Z,17.57
2023-03-28T10:22:07.811Z,17.40
2023-03-28T10:24:37.264Z,16.97
2023-03-28T10:27:18.850Z,17.70
2023-03-28T10:29:47.870Z,16.67
2023-03-28T10:32:26.047Z,16.87
2023-03-28T10:35:03.748Z,16.87
2023-03-28T10:37:33.302Z,16.60
2023-03-28T10:40:05.584Z,17.10
2023-03-28T10:42:43.970Z,15.93
2023-03-28T10:45:23.848Z,16.77
2023-03-28T10:47:55.694Z,17.20
2023-03-28T10:50:33.021Z,18.07
2023-03-28T10:53:13.712Z,17.10
2023-03-28T10:56:00.074Z,17.17
2023-03-28T10:58:36.060Z,15.73
2023-03-28T11:01:11.159Z,16.47
2023-03-28T11:04:01.245Z,16.00
2023-03-28T11:06:39.481Z,15.97
2023-03-28T11:09:18.200Z,15.70
2023-03-28T11:11:56.635Z,16.17
2023-03-28T11:14:33.503Z,15.77
2023-03-28T11:17:07.011Z,16.33
2023-03-28T11:20:02.423Z,16.17
2023-03-28T11:22:52.291Z,18.33
2023-03-28T11:25:35.312Z,17.37
2023-03-28T11:28:13.255Z,20.00
2023-03-28T11:30:43.960Z,19.30
2023-03-28T11:33:18.769Z,21.73
2023-03-28T11:35:50.338Z,20.27
2023-03-28T11:38:23.821Z,20.20
2023-03-28T11:40:56.548Z,21.57
2023-03-28T11:43:30.853Z,23.40
2023-03-28T11:46:06.792Z,21.20
2023-03-28T11:48:41.077Z,21.13
2023-03-28T11:51:13.939Z,20.70
2023-03-28T11:53:48.921Z,23.00
2023-03-28T11:56:27.937Z,23.00
2023-03-28T11:59:02.204Z,22.97
2023-03-28T12:01:34.976Z,20.87
2023-03-28T12:04:08.536Z,20.00
2023-03-28T12:06:52.417Z,26.17
2023-03-28T12:09:35.703Z,20.03
2023-03-28T12:12:10.432Z,20.53
2023-03-28T12:14:48.209Z,19.33
2023-03-28T12:17:21.207Z,20.23
2023-03-28T12:19:49.235Z,20.90
2023-03-28T12:22:23.772Z,22.57
2023-03-28T12:25:02.432Z,19.30
2023-03-28T12:27:42.601Z,21.30
2023-03-28T12:30:21.262Z,20.30
2023-03-28T12:32:56.970Z,20.40
2023-03-28T12:35:33.993Z,19.90
2023-03-28T12:38:19.132Z,20.75
2023-03-28T12:40:55.433Z,19.97
2023-03-28T12:43:29.368Z,20.40
2023-03-28T12:46:01.234Z,19.63
2023-03-28T12:48:37.915Z,21.83
2023-03-28T12:51:11.848Z,20.20
2023-03-28T12:53:46.638Z,21.30
2023-03-28T12:56:17.412Z,18.70
2023-03-28T12:58:48.837Z,21.67
2023-03-28T13:01:33.825Z,22.00
2023-03-28T13:04:11.004Z,20.10
2023-03-28T13:06:47.217Z,20.17
2023-03-28T13:09:39.103Z,21.10
2023-03-28T13:12:29.222Z,22.23
2023-03-28T13:15:02.308Z,20.37
2023-03-28T13:17:32.932Z,21.20
2023-03-28T13:20:25.785Z,22.30
2023-03-28T13:22:58.602Z,21.73
2023-03-28T13:25:29.599Z,21.08
2023-03-28T13:28:01.533Z,20.17
2023-03-28T13:30:31.385Z,21.80
2023-03-28T13:33:03.466Z,21.23
2023-03-28T13:35:49.003Z,19.95
2023-03-28T13:38:35.020Z,21.20
2023-03-28T13:41:06.588Z,22.63
2023-03-28T13:43:44.856Z,23.10
2023-03-28T13:46:16.273Z,22.90
2023-03-28T13:48:51.561Z,21.87
2023-03-28T13:51:23.869Z,22.48
2023-03-28T13:53:52.040Z,20.20
2023-03-28T13:56:26.331Z,20.40
2023-03-28T13:58:57.327Z,21.43
2023-03-28T14:01:27.514Z,23.98
2023-03-28T14:03:56.395Z,21.88
2023-03-28T14:06:26.017Z,22.00
2023-03-28T14:08:55.847Z,24.05
2023-03-28T14:11:30.422Z,24.95
2023-03-28T14:14:08.854Z,20.77
2023-03-28T14:16:38.447Z,20.92
2023-03-28T14:19:07.704Z,23.20
2023-03-28T14:21:36.449Z,22.67
2023-03-28T14:24:07.825Z,20.13
2023-03-28T14:26:37.726Z,33.80
2023-03-28T14:29:12.358Z,21.60
2023-03-28T14:31:46.126Z,21.15
2023-03-28T14:34:18.417Z,21.25
2023-03-28T14:37:01.240Z,22.52
2023-03-28T14:39:31.350Z,21.42
2023-03-28T14:42:02.884Z,22.52
2023-03-28T14:44:37.226Z,20.67
2023-03-28T14:47:05.604Z,20.77
2023-03-28T14:49:34.252Z,19.30
2023-03-28T14:52:03.619Z,18.55
2023-03-28T14:54:34.567Z,17.98
2023-03-28T14:57:04.794Z,18.48
2023-03-28T14:59:37.924Z,18.33
2023-03-28T15:02:06.941Z,18.40
2023-03-28T15:04:36.731Z,18.50
2023-03-28T15:07:05.268Z,18.50
2023-03-28T15:09:34.771Z,17.80
2023-03-28T15:12:06.717Z,17.70
2023-03-28T15:14:41.168Z,17.50
2023-03-28T15:17:14.774Z,17.70
2023-03-28T15:19:43.013Z,17.40
2023-03-28T15:22:14.032Z,17.40
2023-03-28T15:24:42.590Z,17.33
2023-03-28T15:27:23.903Z,17.52
2023-03-28T15:29:53.966Z,18.08
2023-03-28T15:32:22.342Z,17.63
2023-03-28T15:34:58.629Z,21.42
2023-03-28T15:37:27.797Z,18.30
2023-03-28T15:40:12.277Z,18.40
2023-03-28T15:42:40.860Z,18.87
2023-03-28T15:45:38.999Z,20.90
2023-03-28T15:48:07.219Z,17.65
2023-03-28T15:50:38.560Z,19.90
2023-03-28T15:53:08.823Z,19.60
2023-03-28T15:55:37.141Z,19.30
2023-03-28T15:58:06.705Z,14.70
2023-03-28T16:00:45.245Z,19.10
2023-03-28T16:03:32.671Z,23.27
2023-03-28T16:06:32.455Z,19.07
2023-03-28T16:09:15.798Z,20.30
2023-03-28T16:11:44.795Z,19.00
2023-03-28T16:14:15.386Z,17.65
2023-03-28T16:16:44.933Z,19.60
2023-03-28T16:19:19.164Z,22.37
2023-03-28T16:21:47.450Z,17.43
2023-03-28T16:24:15.903Z,19.53
2023-03-28T16:26:44.236Z,19.03
2023-03-28T16:29:12.250Z,17.90
2023-03-28T16:31:41.028Z,18.70
2023-03-28T16:34:10.500Z,19.33
2023-03-28T16:36:39.047Z,17.35
2023-03-28T16:39:08.431Z,17.20
2023-03-28T16:41:37.237Z,17.97
2023-03-28T16:44:05.571Z,18.20
2023-03-28T16:46:33.965Z,17.23
2023-03-28T16:49:01.978Z,17.93
2023-03-28T16:51:31.421Z,17.33
2023-03-28T16:53:59.400Z,18.03
2023-03-28T16:56:30.161Z,16.67
2023-03-28T16:58:58.377Z,16.20
2023-03-28T17:01:26.451Z,16.60
2023-03-28T17:03:55.729Z,17.47
2023-03-28T17:06:23.872Z,16.73
2023-03-28T17:08:54.433Z,16.60
2023-03-28T17:11:23.416Z,15.60
2023-03-28T17:13:53.927Z,16.70
2023-03-28T17:16:23.043Z,17.60
2023-03-28T17:18:51.223Z,17.83
2023-03-28T17:21:19.808Z,18.87
2023-03-28T17:23:49.470Z,18.87
2023-03-28T17:26:19.562Z,18.43
2023-03-28T17:28:47.525Z,17.53
2023-03-28T17:31:17.770Z,19.17
2023-03-28T17:33:46.524Z,18.43
2023-03-28T17:36:19.665Z,18.43
2023-03-28T17:38:49.758Z,19.70
2023-03-28T17:41:19.663Z,21.37
2023-03-28T17:43:47.685Z,20.20
2023-03-28T17:46:16.429Z,20.33
2023-03-28T17:48:44.814Z,20.07
2023-03-28T17:51:13.822Z,20.67
2023-03-28T17:53:42.975Z,20.77
2023-03-28T17:56:12.399Z,20.90
2023-03-28T17:58:42.171Z,20.13
2023-03-28T18:01:11.090Z,22.90
2023-03-28T18:03:40.080Z,23.10
2023-03-28T18:06:09.635Z,23.10
2023-03-28T18:08:38.104Z,23.73
2023-03-28T18:11:08.489Z,23.13
2023-03-28T18:13:37.476Z,24.40
2023-03-28T18:16:10.968Z,21.00
2023-03-28T18:18:40.124Z,21.23
2023-03-28T18:21:08.765Z,20.97
2023-03-28T18:23:37.452Z,21.63
2023-03-28T18:26:06.723Z,21.03
2023-03-28T18:28:36.314Z,21.93
2023-03-28T18:31:10.695Z,21.33
2023-03-28T18:33:39.639Z,21.87
2023-03-28T18:36:08.947Z,22.50
2023-03-28T18:38:38.390Z,24.00
2023-03-28T18:41:08.261Z,22.83
2023-03-28T18:43:37.233Z,22.27
2023-03-28T18:46:07.803Z,22.77
2023-03-28T18:48:37.408Z,23.10
2023-03-28T18:51:06.391Z,22.60
2023-03-28T18:53:34.965Z,22.20
2023-03-28T18:56:03.443Z,21.93
2023-03-28T18:58:31.611Z,21.03
2023-03-28T19:01:01.150Z,21.10
2023-03-28T19:03:30.756Z,22.40
2023-03-28T19:06:02.526Z,22.27
2023-03-28T19:08:31.335Z,22.20
2023-03-28T19:11:01.270Z,21.87
2023-03-28T19:13:30.775Z,22.23
2023-03-28T19:16:00.225Z,21.97
2023-03-28T19:18:29.216Z,21.50
2023-03-28T19:20:58.257Z,22.20
2023-03-28T19:23:29.337Z,21.53
2023-03-28T19:25:57.418Z,22.90
2023-03-28T19:28:25.635Z,22.33
2023-03-28T19:30:58.752Z,22.73
2023-03-28T19:33:27.784Z,21.03
2023-03-28T19:35:55.959Z,21.73
2023-03-28T19:38:24.622Z,21.30
2023-03-28T19:40:58.362Z,20.40
2023-03-28T19:43:26.662Z,19.97
2023-03-28T19:45:55.007Z,18.73
2023-03-28T19:48:23.276Z,19.30
2023-03-28T19:50:51.355Z,19.43
2023-03-28T19:53:19.463Z,19.20
2023-03-28T19:55:52.615Z,18.20
2023-03-28T19:58:22.087Z,18.40
2023-03-28T20:00:50.047Z,18.47
2023-03-28T20:03:18.401Z,19.07
2023-03-28T20:05:48.320Z,18.67
2023-03-28T20:08:18.803Z,18.77
2023-03-28T20:10:48.611Z,18.67
2023-03-28T20:13:17.323Z,18.63
2023-03-28T20:15:47.696Z,18.33
2023-03-28T20:18:19.869Z,18.00
2023-03-28T20:20:51.941Z,17.73
2023-03-28T20:23:22.457Z,17.20
2023-03-28T20:25:52.095Z,17.90
2023-03-28T20:28:20.995Z,18.17
2023-03-28T20:30:50.731Z,18.70
2023-03-28T20:33:20.498Z,18.60
2023-03-28T20:35:53.078Z,18.57
2023-03-28T20:38:21.080Z,20.57
2023-03-28T20:40:49.173Z,18.20
2023-03-28T20:43:20.224Z,17.87
2023-03-28T20:45:54.449Z,18.03
2023-03-28T20:48:35.145Z,18.63
2023-03-28T20:51:03.984Z,17.93
2023-03-28T20:53:33.186Z,18.47
2023-03-28T20:56:03.536Z,18.90
2023-03-28T20:58:32.652Z,18.20
2023-03-28T21:01:04.031Z,18.97
2023-03-28T21:03:46.802Z,19.00
2023-03-28T21:06:16.036Z,18.73
2023-03-28T21:08:47.196Z,18.07
2023-03-28T21:11:16.237Z,18.67
2023-03-28T21:13:44.526Z,17.77
2023-03-28T21:16:15.923Z,19.80
2023-03-28T21:18:44.328Z,18.50
2023-03-28T21:21:13.968Z,18.23
2023-03-28T21:23:43.027Z,19.17
2023-03-28T21:26:12.581Z,18.50
2023-03-28T21:28:40.825Z,17.87
2023-03-28T21:31:11.244Z,19.00
2023-03-28T21:33:41.499Z,16.90
2023-03-28T21:36:12.096Z,17.13
2023-03-28T21:38:40.872Z,16.23
2023-03-28T21:41:09.424Z,16.23
2023-03-28T21:43:38.608Z,17.10
2023-03-28T21:46:07.272Z,16.70
2023-03-28T21:48:36.428Z,16.03
2023-03-28T21:51:06.566Z,16.90
2023-03-28T21:53:36.526Z,16.60
2023-03-28T21:56:06.670Z,16.20
2023-03-28T21:58:35.312Z,16.27
2023-03-28T22:01:04.873Z,17.10
2023-03-28T22:03:33.393Z,16.33
2023-03-28T22:06:01.457Z,16.60
2023-03-28T22:08:30.893Z,16.40
2023-03-28T22:11:03.823Z,16.50
2023-03-28T22:13:32.294Z,16.30
2023-03-28T22:16:01.422Z,16.67
2023-03-28T22:18:30.808Z,16.17
2023-03-28T22:21:02.390Z,16.63
2023-03-28T22:23:32.434Z,16.63
2023-03-28T22:26:00.376Z,16.30
2023-03-28T22:28:28.372Z,16.80
2023-03-28T22:30:57.279Z,16.50
2023-03-28T22:33:25.772Z,17.07
2023-03-28T22:35:54.088Z,17.97
2023-03-28T22:38:22.126Z,17.33
2023-03-28T22:40:51.518Z,17.87
2023-03-28T22:43:19.585Z,16.73
2023-03-28T22:45:47.618Z,16.93
2023-03-28T22:48:15.630Z,18.10
2023-03-28T22:50:45.365Z,17.57
2023-03-28T22:53:14.345Z,16.93
2023-03-28T22:55:43.674Z,17.13
2023-03-28T22:58:13.454Z,16.93
2023-03-28T23:00:43.854Z,16.60
2023-03-28T23:03:12.254Z,17.10
2023-03-28T23:05:40.454Z,16.90
2023-03-28T23:08:08.906Z,17.07
2023-03-28T23:10:37.114Z,16.57
2023-03-28T23:13:05.596Z,15.90
2023-03-28T23:15:35.276Z,16.37
2023-03-28T23:18:03.755Z,17.90
2023-03-28T23:20:31.848Z,15.53
2023-03-28T23:22:59.859Z,16.17
2023-03-28T23:25:28.601Z,16.30
2023-03-28T23:27:56.642Z,17.00
2023-03-28T23:30:24.786Z,16.47
2023-03-28T23:32:54.200Z,16.77
2023-03-28T23:35:22.326Z,19.10
2023-03-28T23:37:53.036Z,16.60
2023-03-28T23:40:21.469Z,16.60
2023-03-28T23:42:49.445Z,15.87
2023-03-28T23:45:17.849Z,15.90
2023-03-28T23:47:46.164Z,15.60
2023-03-28T23:50:15.554Z,16.20
2023-03-28T23:52:44.041Z,16.53
2023-03-28T23:55:12.084Z,15.93
2023-03-28T23:57:40.072Z,16.27
